createdAt,value
2023-06-15T00:02:19.399Z,6.73
2023-06-15T00:04:46.948Z,6.63
2023-06-15T00:07:14.417Z,7.33
2023-06-15T00:09:42.002Z,6.50
2023-06-15T00:12:10.633Z,6.93
2023-06-15T00:14:38.306Z,6.00
2023-06-15T00:17:06.145Z,6.70
2023-06-15T00:19:33.703Z,6.03
2023-06-15T00:22:01.901Z,6.27
2023-06-15T00:24:29.457Z,6.00
2023-06-15T00:26:56.966Z,6.10
2023-06-15T00:29:24.588Z,5.90
2023-06-15T00:31:52.389Z,5.93
2023-06-15T00:34:19.754Z,6.10
2023-06-15T00:36:47.283Z,6.40
2023-06-15T00:39:14.745Z,6.40
2023-06-15T00:41:43.449Z,6.73
2023-06-15T00:44:11.721Z,7.10
2023-06-15T00:46:40.432Z,6.77
2023-06-15T00:49:08.786Z,6.80
2023-06-15T00:51:40.136Z,6.20
2023-06-15T00:54:08.382Z,7.43
2023-06-15T00:56:37.116Z,6.50
2023-06-15T00:59:06.075Z,6.50
2023-06-15T01:01:33.608Z,6.10
2023-06-15T01:04:03.019Z,6.63
2023-06-15T01:06:33.092Z,6.03
2023-06-15T01:09:04.130Z,6.37
2023-06-15T01:11:32.664Z,6.60
2023-06-15T01:14:01.569Z,6.40
2023-06-15T01:16:39.933Z,6.37
2023-06-15T01:19:31.061Z,6.63
2023-06-15T01:22:16.409Z,6.20
2023-06-15T01:24:49.588Z,6.70
2023-06-15T01:27:19.938Z,6.80
2023-06-15T01:29:47.582Z,6.37
2023-06-15T01:32:15.112Z,6.20
2023-06-15T01:34:42.610Z,6.47
2023-06-15T01:37:10.731Z,6.53
2023-06-15T01:39:40.278Z,6.80
2023-06-15T01:42:08.582Z,6.60
2023-06-15T01:44:36.739Z,6.27
2023-06-15T01:47:04.486Z,6.20
2023-06-15T01:49:31.907Z,6.13
2023-06-15T01:51:59.362Z,6.33
2023-06-15T01:54:26.943Z,6.13
2023-06-15T01:56:54.455Z,5.80
2023-06-15T01:59:22.287Z,6.47
2023-06-15T02:01:50.069Z,6.37
2023-06-15T02:04:17.573Z,7.03
2023-06-15T02:06:45.153Z,6.83
2023-06-15T02:09:12.807Z,7.50
2023-06-15T02:11:43.105Z,7.87
2023-06-15T02:14:10.758Z,7.00
2023-06-15T02:16:39.625Z,7.77
2023-06-15T02:19:08.001Z,7.80
2023-06-15T02:21:35.464Z,8.40
2023-06-15T02:24:02.913Z,7.00
2023-06-15T02:26:30.403Z,7.97
2023-06-15T02:28:59.839Z,8.00
2023-06-15T02:31:27.328Z,7.03
2023-06-15T02:33:54.726Z,6.53
2023-06-15T02:36:23.927Z,7.60
2023-06-15T02:38:51.527Z,6.67
2023-06-15T02:41:19.692Z,7.37
2023-06-15T02:43:47.140Z,7.40
2023-06-15T02:46:14.811Z,7.90
2023-06-15T02:48:42.436Z,7.30
2023-06-15T02:51:10.009Z,7.40
2023-06-15T02:53:37.637Z,7.90
2023-06-15T02:56:07.915Z,8.50
2023-06-15T02:58:38.446Z,7.90
2023-06-15T03:01:42.161Z,7.70
2023-06-15T03:04:16.123Z,6.60
2023-06-15T03:06:47.607Z,7.10
2023-06-15T03:09:22.011Z,6.70
2023-06-15T03:11:51.975Z,5.97
2023-06-15T03:14:21.816Z,6.17
2023-06-15T03:16:49.627Z,7.60
2023-06-15T03:19:17.215Z,6.77
2023-06-15T03:21:45.387Z,7.03
2023-06-15T03:24:14.958Z,7.03
2023-06-15T03:26:43.286Z,6.77
2023-06-15T03:29:12.393Z,6.83
2023-06-15T03:31:42.267Z,7.37
2023-06-15T03:34:11.022Z,7.37
2023-06-15T03:36:38.495Z,7.23
2023-06-15T03:39:06.507Z,6.83
2023-06-15T03:41:38.397Z,6.80
2023-06-15T03:44:06.704Z,6.87
2023-06-15T03:46:34.274Z,6.47
2023-06-15T03:49:02.755Z,7.00
2023-06-15T03:51:30.778Z,6.53
2023-06-15T03:53:58.380Z,7.43
2023-06-15T03:56:26.411Z,6.80
2023-06-15T03:58:53.965Z,6.37
2023-06-15T04:01:23.675Z,6.50
2023-06-15T04:03:51.902Z,6.27
2023-06-15T04:06:22.813Z,6.57
2023-06-15T04:08:53.098Z,6.30
2023-06-15T04:11:22.102Z,7.13
2023-06-15T04:13:50.937Z,6.77
2023-06-15T04:16:18.330Z,6.47
2023-06-15T04:18:46.797Z,6.10
2023-06-15T04:21:14.242Z,6.30
2023-06-15T04:23:44.611Z,5.57
2023-06-15T04:26:12.608Z,5.43
2023-06-15T04:28:40.504Z,4.87
2023-06-15T04:31:11.141Z,5.50
2023-06-15T04:33:43.949Z,5.83
2023-06-15T04:36:17.764Z,5.50
2023-06-15T04:38:49.752Z,5.50
2023-06-15T04:41:24.208Z,5.80
2023-06-15T04:43:57.461Z,5.70
2023-06-15T04:46:25.974Z,5.83
2023-06-15T04:48:53.759Z,6.03
2023-06-15T04:51:21.468Z,6.10
2023-06-15T04:53:49.573Z,5.60
2023-06-15T04:56:17.803Z,5.50
2023-06-15T04:58:46.330Z,5.70
2023-06-15T05:01:14.043Z,6.13
2023-06-15T05:03:41.650Z,6.23
2023-06-15T05:06:09.259Z,6.13
2023-06-15T05:08:38.376Z,5.80
2023-06-15T05:11:07.776Z,5.60
2023-06-15T05:13:35.539Z,5.53
2023-06-15T05:16:03.746Z,5.77
2023-06-15T05:18:32.522Z,5.73
2023-06-15T05:21:00.437Z,6.30
2023-06-15T05:23:31.752Z,6.40
2023-06-15T05:26:00.799Z,6.37
2023-06-15T05:28:28.545Z,6.10
2023-06-15T05:30:56.002Z,6.13
2023-06-15T05:33:23.373Z,6.40
2023-06-15T05:35:51.159Z,6.77
2023-06-15T05:38:18.617Z,6.87
2023-06-15T05:40:46.231Z,6.43
2023-06-15T05:43:13.680Z,6.73
2023-06-15T05:45:41.448Z,6.43
2023-06-15T05:48:10.575Z,6.00
2023-06-15T05:50:39.271Z,6.50
2023-06-15T05:53:07.760Z,6.97
2023-06-15T05:55:35.441Z,6.90
2023-06-15T05:58:03.450Z,6.83
2023-06-15T06:00:33.073Z,7.60
2023-06-15T06:03:02.580Z,7.23
2023-06-15T06:05:43.929Z,8.17
2023-06-15T06:08:11.337Z,8.47
2023-06-15T06:10:38.886Z,8.23
2023-06-15T06:13:26.483Z,8.50
2023-06-15T06:15:54.175Z,8.60
2023-06-15T06:18:21.694Z,8.37
2023-06-15T06:20:49.111Z,9.00
2023-06-15T06:23:16.905Z,8.80
2023-06-15T06:25:44.264Z,9.33
2023-06-15T06:28:11.664Z,8.00
2023-06-15T06:30:39.358Z,8.37
2023-06-15T06:33:06.857Z,8.40
2023-06-15T06:35:34.437Z,8.23
2023-06-15T06:38:02.066Z,7.77
2023-06-15T06:40:30.530Z,8.20
2023-06-15T06:42:58.070Z,7.87
2023-06-15T06:45:29.185Z,7.87
2023-06-15T06:47:58.020Z,8.70
2023-06-15T06:50:25.702Z,8.23
2023-06-15T06:52:53.112Z,8.30
2023-06-15T06:55:20.871Z,8.20
2023-06-15T06:57:48.560Z,8.60
2023-06-15T07:00:16.950Z,8.13
2023-06-15T07:02:44.382Z,8.50
2023-06-15T07:05:11.785Z,8.77
2023-06-15T07:07:39.463Z,8.90
2023-06-15T07:10:07.890Z,7.83
2023-06-15T07:12:35.619Z,7.80
2023-06-15T07:15:02.988Z,8.10
2023-06-15T07:17:30.346Z,7.63
2023-06-15T07:19:58.448Z,7.60
2023-06-15T07:22:25.869Z,7.70
2023-06-15T07:24:53.511Z,7.43
2023-06-15T07:27:22.090Z,7.77
2023-06-15T07:29:49.740Z,8.60
2023-06-15T07:32:17.201Z,8.13
2023-06-15T07:34:44.604Z,7.87
2023-06-15T07:37:11.980Z,7.47
2023-06-15T07:39:39.292Z,7.67
2023-06-15T07:42:08.058Z,7.63
2023-06-15T07:44:36.411Z,8.60
2023-06-15T07:47:04.512Z,7.60
2023-06-15T07:49:44.886Z,7.00
2023-06-15T07:52:13.407Z,7.10
2023-06-15T07:54:41.563Z,7.13
2023-06-15T07:57:09.001Z,6.70
2023-06-15T07:59:36.394Z,7.63
2023-06-15T08:02:04.157Z,7.47
2023-06-15T08:04:31.534Z,6.80
2023-06-15T08:06:58.887Z,7.47
2023-06-15T08:09:26.332Z,6.60
2023-06-15T08:11:53.696Z,6.50
2023-06-15T08:14:21.874Z,6.93
2023-06-15T08:16:49.599Z,6.73
2023-06-15T08:19:16.985Z,6.97
2023-06-15T08:21:44.485Z,6.53
2023-06-15T08:24:13.470Z,6.37
2023-06-15T08:26:41.747Z,6.27
2023-06-15T08:29:22.692Z,5.73
2023-06-15T08:31:51.717Z,6.47
2023-06-15T08:34:19.739Z,5.50
2023-06-15T08:36:47.523Z,5.77
2023-06-15T08:39:15.013Z,5.97
2023-06-15T08:41:46.443Z,5.90
2023-06-15T08:44:16.469Z,6.20
2023-06-15T08:46:44.363Z,5.43
2023-06-15T08:49:12.170Z,5.50
2023-06-15T08:51:41.821Z,5.33
2023-06-15T08:54:11.331Z,5.60
2023-06-15T08:56:39.851Z,5.37
2023-06-15T08:59:08.512Z,5.20
2023-06-15T09:01:41.566Z,5.53
2023-06-15T09:04:09.665Z,5.50
2023-06-15T09:06:37.278Z,5.17
2023-06-15T09:09:05.375Z,6.10
2023-06-15T09:11:41.062Z,5.10
2023-06-15T09:14:10.570Z,5.23
2023-06-15T09:16:39.376Z,5.30
2023-06-15T09:19:17.435Z,5.03
2023-06-15T09:21:55.530Z,5.10
2023-06-15T09:24:24.715Z,5.30
2023-06-15T09:26:52.227Z,4.87
2023-06-15T09:29:19.585Z,4.83
2023-06-15T09:31:46.954Z,4.90
2023-06-15T09:34:15.204Z,5.30
2023-06-15T09:36:50.704Z,5.50
2023-06-15T09:39:26.020Z,5.20
2023-06-15T09:41:57.553Z,5.20
2023-06-15T09:44:26.451Z,5.23
2023-06-15T09:46:57.725Z,5.53
2023-06-15T09:49:27.472Z,5.60
2023-06-15T09:51:56.117Z,5.73
2023-06-15T09:54:29.967Z,5.50
2023-06-15T09:56:58.493Z,5.43
2023-06-15T09:59:26.256Z,5.80
2023-06-15T10:01:57.061Z,5.90
2023-06-15T10:04:29.531Z,5.60
2023-06-15T10:07:02.324Z,5.80
2023-06-15T10:09:36.938Z,5.80
2023-06-15T10:12:13.765Z,6.10
2023-06-15T10:14:53.888Z,5.40
2023-06-15T10:17:25.448Z,5.10
2023-06-15T10:19:55.068Z,5.03
2023-06-15T10:22:25.467Z,5.40
2023-06-15T10:24:53.804Z,5.20
2023-06-15T10:27:21.952Z,5.17
2023-06-15T10:29:55.734Z,5.13
2023-06-15T10:32:38.036Z,5.37
2023-06-15T10:35:21.308Z,4.97
2023-06-15T10:38:16.513Z,4.80
2023-06-15T10:40:49.031Z,4.40
2023-06-15T10:43:25.971Z,4.30
2023-06-15T10:45:53.906Z,4.60
2023-06-15T10:48:29.197Z,4.40
2023-06-15T10:51:07.758Z,4.50
2023-06-15T10:53:43.070Z,4.93
2023-06-15T10:56:17.926Z,4.50
2023-06-15T10:59:05.328Z,4.93
2023-06-15T11:01:33.657Z,4.70
2023-06-15T11:04:22.308Z,4.90
2023-06-15T11:06:58.652Z,4.40
2023-06-15T11:09:35.634Z,4.97
2023-06-15T11:12:04.539Z,5.00
2023-06-15T11:14:33.292Z,4.50
2023-06-15T11:17:05.763Z,5.50
2023-06-15T11:19:42.128Z,5.37
2023-06-15T11:22:10.195Z,4.47
2023-06-15T11:24:39.494Z,4.80
2023-06-15T11:27:11.183Z,5.00
2023-06-15T11:29:43.403Z,4.70
2023-06-15T11:32:11.615Z,4.60
2023-06-15T11:34:40.096Z,4.47
2023-06-15T11:37:14.905Z,4.73
2023-06-15T11:39:45.508Z,4.33
2023-06-15T11:42:13.101Z,4.67
2023-06-15T11:44:42.586Z,4.10
2023-06-15T11:47:14.172Z,4.40
2023-06-15T11:49:42.140Z,5.00
2023-06-15T11:52:09.535Z,4.57
2023-06-15T11:54:51.717Z,4.43
2023-06-15T11:57:22.156Z,4.10
2023-06-15T11:59:49.748Z,3.80
2023-06-15T12:02:17.927Z,4.33
2023-06-15T12:04:48.728Z,4.23
2023-06-15T12:09:53.512Z,4.17
2023-06-15T12:12:36.936Z,4.10
2023-06-15T12:15:06.694Z,4.43
2023-06-15T12:17:36.008Z,4.40
2023-06-15T12:20:11.586Z,4.90
2023-06-15T12:22:44.804Z,4.20
2023-06-15T12:25:13.061Z,5.23
2023-06-15T12:27:45.821Z,3.77
2023-06-15T12:30:19.403Z,3.70
2023-06-15T12:32:49.414Z,4.20
2023-06-15T12:35:39.424Z,3.63
2023-06-15T12:38:11.608Z,4.20
2023-06-15T12:40:43.106Z,4.47
2023-06-15T12:43:10.822Z,3.90
2023-06-15T12:45:38.516Z,4.27
2023-06-15T12:48:07.052Z,3.77
2023-06-15T12:50:35.124Z,4.13
2023-06-15T12:53:03.527Z,3.93
2023-06-15T12:55:30.987Z,3.80
2023-06-15T12:57:59.029Z,4.27
2023-06-15T13:00:30.999Z,3.77
2023-06-15T13:03:02.537Z,4.00
2023-06-15T13:05:30.206Z,3.77
2023-06-15T13:07:58.301Z,4.10
2023-06-15T13:10:26.196Z,4.00
2023-06-15T13:12:54.508Z,4.10
2023-06-15T13:15:22.572Z,3.80
2023-06-15T13:17:51.164Z,4.13
2023-06-15T13:20:19.675Z,3.60
2023-06-15T13:22:49.623Z,4.03
2023-06-15T13:25:17.287Z,3.30
2023-06-15T13:27:44.832Z,3.57
2023-06-15T13:30:14.628Z,3.70
2023-06-15T13:32:44.552Z,3.40
2023-06-15T13:35:12.172Z,3.70
2023-06-15T13:37:40.944Z,3.70
2023-06-15T13:40:09.766Z,3.70
2023-06-15T13:42:39.594Z,4.00
2023-06-15T13:45:09.944Z,3.90
2023-06-15T13:47:39.435Z,3.60
2023-06-15T13:50:07.533Z,3.33
2023-06-15T13:52:36.135Z,3.60
2023-06-15T13:55:07.036Z,3.33
2023-06-15T13:57:36.157Z,3.77
2023-06-15T14:00:09.392Z,3.30
2023-06-15T14:02:42.232Z,3.33
2023-06-15T14:05:10.876Z,3.27
2023-06-15T14:07:39.892Z,2.90
2023-06-15T14:10:08.495Z,2.70
2023-06-15T14:12:36.558Z,3.23
2023-06-15T14:15:07.702Z,3.90
2023-06-15T14:17:35.501Z,3.10
2023-06-15T14:20:03.975Z,2.97
2023-06-15T14:22:32.295Z,2.93
2023-06-15T14:24:59.818Z,2.60
2023-06-15T14:27:27.545Z,2.90
2023-06-15T14:29:55.004Z,2.73
2023-06-15T14:32:22.422Z,2.70
2023-06-15T14:34:50.596Z,3.03
2023-06-15T14:37:20.219Z,2.70
2023-06-15T14:39:49.047Z,2.90
2023-06-15T14:42:20.199Z,3.13
2023-06-15T14:44:47.934Z,3.03
2023-06-15T14:47:16.079Z,2.70
2023-06-15T14:49:43.713Z,2.43
2023-06-15T14:52:12.167Z,2.90
2023-06-15T14:54:42.877Z,2.87
2023-06-15T14:57:12.697Z,3.37
2023-06-15T14:59:40.907Z,2.80
2023-06-15T15:02:08.632Z,2.93
2023-06-15T15:04:36.051Z,2.80
2023-06-15T15:07:04.009Z,2.33
2023-06-15T15:09:31.385Z,2.30
2023-06-15T15:11:58.953Z,2.50
2023-06-15T15:14:27.014Z,2.17
2023-06-15T15:16:54.534Z,2.20
2023-06-15T15:19:22.943Z,2.43
2023-06-15T15:21:51.151Z,2.63
2023-06-15T15:24:18.741Z,2.60
2023-06-15T15:26:46.420Z,2.30
2023-06-15T15:29:13.967Z,2.33
2023-06-15T15:31:41.935Z,2.80
2023-06-15T15:34:09.605Z,2.30
2023-06-15T15:36:37.330Z,2.40
2023-06-15T15:39:05.314Z,2.40
2023-06-15T15:41:32.900Z,2.17
2023-06-15T15:44:01.490Z,2.40
2023-06-15T15:46:29.030Z,2.20
2023-06-15T15:48:56.417Z,2.10
2023-06-15T15:51:23.814Z,2.30
2023-06-15T15:53:52.313Z,2.60
2023-06-15T15:56:19.665Z,2.17
2023-06-15T15:58:47.036Z,2.57
2023-06-15T16:01:17.547Z,2.30
2023-06-15T16:03:45.346Z,2.70
2023-06-15T16:06:12.946Z,2.20
2023-06-15T16:08:40.635Z,2.60
2023-06-15T16:11:08.120Z,2.60
2023-06-15T16:13:35.670Z,2.93
2023-06-15T16:18:34.151Z,2.70
2023-06-15T16:21:01.660Z,2.53
2023-06-15T16:23:29.280Z,2.47
2023-06-15T16:25:56.811Z,2.97
2023-06-15T16:28:24.230Z,3.10
2023-06-15T16:30:53.903Z,2.97
2023-06-15T16:33:21.353Z,2.90
2023-06-15T16:35:48.877Z,3.20
2023-06-15T16:38:16.422Z,3.03
2023-06-15T16:40:48.280Z,2.73
2023-06-15T16:43:16.274Z,2.97
2023-06-15T16:45:44.195Z,3.37
2023-06-15T16:48:12.233Z,3.37
2023-06-15T16:50:39.831Z,3.40
2023-06-15T16:53:07.827Z,3.03
2023-06-15T16:55:35.363Z,3.33
2023-06-15T16:58:04.366Z,3.07
2023-06-15T17:00:32.164Z,3.43
2023-06-15T17:03:00.635Z,3.50
2023-06-15T17:05:28.145Z,3.60
2023-06-15T17:07:56.755Z,3.63
2023-06-15T17:10:31.358Z,3.67
2023-06-15T17:13:00.832Z,3.70
2023-06-15T17:15:29.710Z,3.40
2023-06-15T17:17:57.680Z,3.57
2023-06-15T17:20:26.838Z,3.50
2023-06-15T17:22:55.860Z,3.63
2023-06-15T17:25:23.203Z,3.53
2023-06-15T17:27:50.860Z,3.40
2023-06-15T17:30:20.204Z,3.60
2023-06-15T17:32:48.215Z,3.70
2023-06-15T17:35:15.812Z,3.33
2023-06-15T17:37:43.384Z,3.67
2023-06-15T17:40:11.636Z,3.40
2023-06-15T17:42:39.044Z,3.90
2023-06-15T17:45:08.447Z,3.07
2023-06-15T17:47:36.795Z,3.57
2023-06-15T17:50:04.530Z,3.33
2023-06-15T17:52:31.940Z,3.30
2023-06-15T17:54:59.708Z,3.10
2023-06-15T17:57:27.453Z,3.33
2023-06-15T17:59:55.339Z,3.20
2023-06-15T18:02:23.579Z,3.30
2023-06-15T18:04:51.775Z,2.97
2023-06-15T18:07:19.403Z,3.13
2023-06-15T18:09:47.898Z,3.40
2023-06-15T18:12:15.435Z,3.60
2023-06-15T18:14:42.892Z,3.30
2023-06-15T18:17:10.540Z,3.30
2023-06-15T18:19:38.273Z,3.67
2023-06-15T18:22:05.647Z,3.50
2023-06-15T18:24:33.239Z,3.50
2023-06-15T18:27:00.755Z,3.63
2023-06-15T18:29:28.172Z,3.60
2023-06-15T18:31:55.541Z,3.57
2023-06-15T18:34:23.050Z,3.57
2023-06-15T18:36:50.392Z,3.43
2023-06-15T18:39:18.880Z,3.70
2023-06-15T18:41:46.418Z,3.33
2023-06-15T18:44:14.207Z,3.70
2023-06-15T18:46:42.680Z,3.63
2023-06-15T18:49:11.874Z,3.43
2023-06-15T18:51:39.391Z,3.37
2023-06-15T18:54:07.540Z,3.70
2023-06-15T18:56:35.361Z,3.73
2023-06-15T18:59:03.322Z,3.97
2023-06-15T19:01:30.987Z,3.83
2023-06-15T19:04:01.530Z,4.03
2023-06-15T19:06:29.207Z,3.57
2023-06-15T19:08:56.579Z,3.73
2023-06-15T19:11:23.936Z,4.00
2023-06-15T19:13:51.635Z,3.80
2023-06-15T19:16:19.013Z,3.63
2023-06-15T19:18:46.790Z,3.87
2023-06-15T19:21:14.175Z,3.70
2023-06-15T19:23:42.115Z,3.93
2023-06-15T19:26:16.817Z,4.00
2023-06-15T19:28:44.399Z,3.73
2023-06-15T19:31:13.249Z,4.00
2023-06-15T19:33:40.843Z,4.30
2023-06-15T19:36:08.200Z,3.90
2023-06-15T19:38:40.175Z,4.37
2023-06-15T19:41:13.573Z,3.90
2023-06-15T19:43:41.343Z,3.93
2023-06-15T19:46:09.105Z,4.40
2023-06-15T19:48:37.282Z,4.73
2023-06-15T19:51:04.662Z,4.17
2023-06-15T19:53:35.050Z,4.10
2023-06-15T19:56:04.767Z,4.93
2023-06-15T19:58:33.716Z,4.90
2023-06-15T20:01:04.288Z,4.60
2023-06-15T20:03:34.031Z,4.70
2023-06-15T20:06:09.126Z,4.77
2023-06-15T20:08:38.634Z,4.53
2023-06-15T20:11:08.530Z,5.20
2023-06-15T20:13:37.127Z,5.10
2023-06-15T20:16:15.217Z,4.63
2023-06-15T20:18:43.794Z,5.03
2023-06-15T20:21:11.330Z,5.23
2023-06-15T20:23:39.148Z,5.50
2023-06-15T20:26:06.505Z,5.40
2023-06-15T20:28:34.117Z,5.30
2023-06-15T20:31:08.809Z,5.07
2023-06-15T20:33:37.756Z,5.13
2023-06-15T20:36:06.747Z,5.70
2023-06-15T20:38:36.789Z,5.80
2023-06-15T20:41:05.490Z,5.53
2023-06-15T20:43:33.611Z,5.67
2023-06-15T20:46:02.886Z,6.70
2023-06-15T20:48:34.208Z,5.93
2023-06-15T20:51:08.808Z,5.70
2023-06-15T20:53:37.078Z,5.80
2023-06-15T20:56:06.996Z,5.90
2023-06-15T20:58:36.859Z,6.43
2023-06-15T21:01:06.276Z,6.17
2023-06-15T21:03:34.164Z,6.23
2023-06-15T21:06:02.633Z,6.20
2023-06-15T21:08:33.619Z,5.90
2023-06-15T21:11:04.751Z,5.87
2023-06-15T21:13:34.671Z,5.80
2023-06-15T21:16:03.446Z,6.47
2023-06-15T21:18:33.371Z,5.93
2023-06-15T21:21:01.617Z,6.00
2023-06-15T21:23:29.053Z,6.27
2023-06-15T21:25:56.641Z,7.03
2023-06-15T21:28:24.442Z,6.27
2023-06-15T21:30:51.789Z,6.37
2023-06-15T21:33:19.313Z,6.03
2023-06-15T21:35:46.690Z,5.77
2023-06-15T21:38:14.964Z,5.50
2023-06-15T21:40:42.313Z,5.67
2023-06-15T21:43:09.772Z,5.73
2023-06-15T21:45:37.114Z,5.70
2023-06-15T21:48:05.234Z,5.90
2023-06-15T21:50:32.608Z,6.23
2023-06-15T21:53:00.031Z,6.20
2023-06-15T21:55:31.724Z,6.67
2023-06-15T21:57:59.424Z,6.23
2023-06-15T22:00:28.118Z,6.10
2023-06-15T22:02:55.644Z,6.37
2023-06-15T22:05:23.317Z,5.90
2023-06-15T22:07:52.220Z,6.27
2023-06-15T22:10:19.774Z,6.47
2023-06-15T22:12:48.499Z,6.20
2023-06-15T22:15:16.080Z,6.13
2023-06-15T22:17:44.482Z,6.27
2023-06-15T22:20:15.565Z,6.07
2023-06-15T22:22:43.368Z,6.37
2023-06-15T22:25:11.305Z,6.37
2023-06-15T22:27:38.665Z,6.07
2023-06-15T22:30:06.783Z,6.30
2023-06-15T22:32:34.451Z,6.40
2023-06-15T22:35:02.087Z,6.60
2023-06-15T22:37:29.674Z,5.80
2023-06-15T22:39:57.060Z,5.90
2023-06-15T22:42:24.391Z,5.20
2023-06-15T22:44:52.034Z,5.00
2023-06-15T22:47:19.694Z,5.60
2023-06-15T22:49:47.079Z,5.10
2023-06-15T22:52:15.522Z,4.80
2023-06-15T22:54:50.751Z,5.27
2023-06-15T22:57:19.211Z,5.13
2023-06-15T22:59:47.155Z,4.73
2023-06-15T23:02:15.044Z,4.97
2023-06-15T23:04:42.421Z,5.10
2023-06-15T23:07:10.899Z,5.10
2023-06-15T23:09:38.529Z,5.17
2023-06-15T23:12:10.573Z,5.37
2023-06-15T23:14:40.017Z,5.43
2023-06-15T23:17:10.392Z,4.90
2023-06-15T23:19:37.810Z,4.93
2023-06-15T23:22:06.554Z,5.40
2023-06-15T23:24:34.354Z,4.50
2023-06-15T23:27:02.437Z,4.30
2023-06-15T23:29:30.024Z,4.33
2023-06-15T23:31:57.353Z,3.90
2023-06-15T23:34:24.797Z,3.90
2023-06-15T23:36:52.312Z,3.80
2023-06-15T23:39:19.769Z,3.73
2023-06-15T23:41:47.141Z,3.80
2023-06-15T23:44:14.667Z,3.90
2023-06-15T23:46:42.137Z,4.07
2023-06-15T23:49:09.762Z,4.20
2023-06-15T23:51:37.097Z,4.23
2023-06-15T23:54:04.441Z,3.93
2023-06-15T23:56:31.796Z,3.93
2023-06-15T23:58:59.166Z,4.00
